createdAt,value
2017-06-05T00:00:32.692Z,7.95
2017-06-05T00:03:16.977Z,7.72
2017-06-05T00:06:01.401Z,7.43
2017-06-05T00:08:45.347Z,9.98
2017-06-05T00:11:30.080Z,7.85
2017-06-05T00:14:11.965Z,8.18
2017-06-05T00:16:56.576Z,6.32
2017-06-05T00:19:40.515Z,9.45
2017-06-05T00:22:24.628Z,5.97
2017-06-05T00:25:06.833Z,7.78
2017-06-05T00:27:50.661Z,10.63
2017-06-05T00:30:34.465Z,8.38
2017-06-05T00:33:18.529Z,7.22
2017-06-05T00:36:02.472Z,10.18
2017-06-05T00:38:46.611Z,8.27
2017-06-05T00:41:32.933Z,6.07
2017-06-05T00:44:17.245Z,7.03
2017-06-05T00:47:09.588Z,9.38
2017-06-05T00:49:54.045Z,10.63
2017-06-05T00:52:38.177Z,6.70
2017-06-05T00:55:22.544Z,5.43
2017-06-05T00:58:07.077Z,5.50
2017-06-05T01:03:33.292Z,10.25
2017-06-05T01:06:07.420Z,8.93
2017-06-05T01:08:40.717Z,6.85
2017-06-05T01:11:14.732Z,10.05
2017-06-05T01:13:45.205Z,7.50
2017-06-05T01:16:19.176Z,7.20
2017-06-05T01:18:50.356Z,6.85
2017-06-05T01:21:23.984Z,7.40
2017-06-05T01:23:58.102Z,7.22
2017-06-05T01:26:32.056Z,8.10
2017-06-05T01:29:05.779Z,7.18
2017-06-05T01:31:39.115Z,6.47
2017-06-05T01:34:13.025Z,7.40
2017-06-05T01:36:46.863Z,12.43
2017-06-05T01:39:20.768Z,8.95
2017-06-05T01:41:54.789Z,8.40
2017-06-05T01:44:28.892Z,6.65
2017-06-05T01:47:02.930Z,7.45
2017-06-05T01:49:36.981Z,6.85
2017-06-05T01:52:11.131Z,7.30
2017-06-05T01:54:48.640Z,9.23
2017-06-05T01:57:22.370Z,9.10
2017-06-05T01:59:52.857Z,9.38
2017-06-05T02:02:23.972Z,7.05
2017-06-05T02:04:57.676Z,7.70
2017-06-05T02:07:31.812Z,8.07
2017-06-05T02:10:05.916Z,8.30
2017-06-05T02:12:40.053Z,12.82
2017-06-05T02:15:14.056Z,8.02
2017-06-05T02:17:47.872Z,8.85
2017-06-05T02:20:21.112Z,9.30
2017-06-05T02:22:52.634Z,7.25
2017-06-05T02:25:27.992Z,7.40
2017-06-05T02:28:15.803Z,9.02
2017-06-05T02:30:49.787Z,7.78
2017-06-05T02:33:23.904Z,7.68
2017-06-05T02:35:57.902Z,6.32
2017-06-05T02:38:31.836Z,10.27
2017-06-05T02:41:07.673Z,8.70
2017-06-05T02:43:41.688Z,9.07
2017-06-05T02:46:15.709Z,11.95
2017-06-05T02:48:49.894Z,9.63
2017-06-05T02:51:23.959Z,9.48
2017-06-05T02:53:58.073Z,8.68
2017-06-05T02:56:33.465Z,8.00
2017-06-05T02:59:11.437Z,8.20
2017-06-05T03:01:42.713Z,7.87
2017-06-05T03:04:16.347Z,6.50
2017-06-05T03:06:50.208Z,14.18
2017-06-05T03:09:21.645Z,9.95
2017-06-05T03:11:55.243Z,9.57
2017-06-05T03:14:29.365Z,9.65
2017-06-05T03:17:06.136Z,9.02
2017-06-05T03:19:37.689Z,7.97
2017-06-05T03:22:08.788Z,8.02
2017-06-05T03:24:39.916Z,8.13
2017-06-05T03:27:13.461Z,12.80
2017-06-05T03:29:47.585Z,13.43
2017-06-05T03:32:21.208Z,8.80
2017-06-05T03:34:52.642Z,9.68
2017-06-05T03:37:23.635Z,8.30
2017-06-05T03:39:54.752Z,8.50
2017-06-05T03:42:29.364Z,8.85
2017-06-05T03:45:00.786Z,11.35
2017-06-05T03:47:34.535Z,9.40
2017-06-05T03:50:08.372Z,8.15
2017-06-05T03:52:42.308Z,11.45
2017-06-05T03:55:16.136Z,11.68
2017-06-05T03:57:47.327Z,10.18
2017-06-05T04:00:20.903Z,16.92
2017-06-05T04:02:55.029Z,12.02
2017-06-05T04:05:27.944Z,9.13
2017-06-05T04:08:05.389Z,8.13
2017-06-05T04:10:39.523Z,9.10
2017-06-05T04:13:13.448Z,10.32
2017-06-05T04:15:47.571Z,8.82
2017-06-05T04:18:21.403Z,9.05
2017-06-05T04:20:55.244Z,11.85
2017-06-05T04:23:29.288Z,8.90
2017-06-05T04:26:03.311Z,10.68
2017-06-05T04:28:36.523Z,9.98
2017-06-05T04:31:12.519Z,10.10
2017-06-05T04:33:46.438Z,9.85
2017-06-05T04:36:20.385Z,10.20
2017-06-05T04:38:53.608Z,9.43
2017-06-05T04:41:27.631Z,9.93
2017-06-05T04:44:00.861Z,9.45
2017-06-05T04:46:32.107Z,11.75
2017-06-05T04:49:05.707Z,8.98
2017-06-05T04:51:37.155Z,9.45
2017-06-05T04:54:10.966Z,9.88
2017-06-05T04:56:45.948Z,11.90
2017-06-05T04:59:20.127Z,13.15
2017-06-05T05:01:54.841Z,12.60
2017-06-05T05:04:28.760Z,11.45
2017-06-05T05:07:02.891Z,11.18
2017-06-05T05:09:36.795Z,18.60
2017-06-05T05:12:08.262Z,11.23
2017-06-05T05:14:41.763Z,13.25
2017-06-05T05:17:16.056Z,11.00
2017-06-05T05:19:49.679Z,13.75
2017-06-05T05:22:23.835Z,12.75
2017-06-05T05:24:57.836Z,10.85
2017-06-05T05:27:31.771Z,12.63
2017-06-05T05:30:13.412Z,13.15
2017-06-05T05:32:46.664Z,11.85
2017-06-05T05:35:19.881Z,11.15
2017-06-05T05:37:53.917Z,12.15
2017-06-05T05:40:38.687Z,10.93
2017-06-05T05:43:12.780Z,13.48
2017-06-05T05:45:47.698Z,14.98
2017-06-05T05:48:21.919Z,11.27
2017-06-05T05:50:59.524Z,11.70
2017-06-05T05:53:33.720Z,13.30
2017-06-05T05:56:07.633Z,10.70
2017-06-05T05:58:41.683Z,11.50
2017-06-05T06:01:16.756Z,13.07
2017-06-05T06:03:50.828Z,10.00
2017-06-05T06:06:25.037Z,13.18
2017-06-05T06:08:58.461Z,12.55
2017-06-05T06:11:32.418Z,11.63
2017-06-05T06:14:10.348Z,10.30
2017-06-05T06:16:49.352Z,19.45
2017-06-05T06:19:33.875Z,10.43
2017-06-05T06:22:08.691Z,9.95
2017-06-05T06:24:48.667Z,16.00
2017-06-05T06:27:22.159Z,9.38
2017-06-05T06:29:55.791Z,10.35
2017-06-05T06:32:23.349Z,11.00
2017-06-05T06:34:50.964Z,10.65
2017-06-05T06:37:18.535Z,10.32
2017-06-05T06:39:46.437Z,12.25
2017-06-05T06:42:14.053Z,10.50
2017-06-05T06:44:41.607Z,9.57
2017-06-05T06:47:22.161Z,9.85
2017-06-05T06:49:49.720Z,10.35
2017-06-05T06:52:30.023Z,8.75
2017-06-05T06:58:03.155Z,12.40
2017-06-05T07:00:30.720Z,14.27
2017-06-05T07:05:51.252Z,15.77
2017-06-05T07:08:18.842Z,10.90
2017-06-05T07:10:46.674Z,20.85
2017-06-05T07:13:14.282Z,13.35
2017-06-05T07:15:41.886Z,11.98
2017-06-05T07:18:09.489Z,14.38
2017-06-05T07:20:37.163Z,11.25
2017-06-05T07:23:04.807Z,11.20
2017-06-05T07:25:32.434Z,12.43
2017-06-05T07:28:00.167Z,16.52
2017-06-05T07:30:27.760Z,10.65
2017-06-05T07:32:55.395Z,10.98
2017-06-05T07:35:22.993Z,11.43
2017-06-05T07:37:50.653Z,12.25
2017-06-05T07:40:18.233Z,11.65
2017-06-05T07:42:45.823Z,13.57
2017-06-05T07:45:13.411Z,10.65
2017-06-05T07:47:41.091Z,10.63
2017-06-05T07:50:08.679Z,11.10
2017-06-05T07:52:36.272Z,13.77
2017-06-05T07:55:06.915Z,10.52
2017-06-05T07:57:34.501Z,17.10
2017-06-05T08:00:02.109Z,10.23
2017-06-05T08:02:29.728Z,11.23
2017-06-05T08:05:10.783Z,10.93
2017-06-05T08:07:38.347Z,10.70
2017-06-05T08:10:05.931Z,12.23
2017-06-05T08:12:33.491Z,12.27
2017-06-05T08:15:01.083Z,10.73
2017-06-05T08:17:28.646Z,11.50
2017-06-05T08:19:56.229Z,10.20
2017-06-05T08:22:23.817Z,12.80
2017-06-05T08:24:51.392Z,14.30
2017-06-05T08:27:18.953Z,10.45
2017-06-05T08:29:46.520Z,9.43
2017-06-05T08:32:14.103Z,11.70
2017-06-05T08:34:41.686Z,10.15
2017-06-05T08:37:09.468Z,11.35
2017-06-05T08:39:37.302Z,12.63
2017-06-05T08:42:04.887Z,11.57
2017-06-05T08:44:32.451Z,16.23
2017-06-05T08:47:00.164Z,12.30
2017-06-05T08:49:27.736Z,13.43
2017-06-05T08:51:55.489Z,12.55
2017-06-05T08:54:23.087Z,12.30
2017-06-05T08:56:50.734Z,12.37
2017-06-05T08:59:18.316Z,11.38
2017-06-05T09:01:45.932Z,13.38
2017-06-05T09:04:13.495Z,13.20
2017-06-05T09:06:41.064Z,16.25
2017-06-05T09:09:08.651Z,14.00
2017-06-05T09:11:36.227Z,16.67
2017-06-05T09:14:03.855Z,15.68
2017-06-05T09:16:31.540Z,12.88
2017-06-05T09:18:59.155Z,13.77
2017-06-05T09:21:26.892Z,15.73
2017-06-05T09:24:02.824Z,15.27
2017-06-05T09:26:30.399Z,13.43
2017-06-05T09:28:58.012Z,11.07
2017-06-05T09:31:31.640Z,12.23
2017-06-05T09:33:59.251Z,14.87
2017-06-05T09:39:26.151Z,11.82
2017-06-05T09:41:53.729Z,17.00
2017-06-05T09:44:21.397Z,12.75
2017-06-05T09:46:52.387Z,13.65
2017-06-05T09:49:19.967Z,14.60
2017-06-05T09:51:53.616Z,11.07
2017-06-05T09:54:21.204Z,13.18
2017-06-05T09:56:48.799Z,12.90
2017-06-05T09:59:16.368Z,15.15
2017-06-05T10:01:44.034Z,11.95
2017-06-05T10:04:11.653Z,10.88
2017-06-05T10:06:39.244Z,10.43
2017-06-05T10:09:06.822Z,8.52
2017-06-05T10:11:34.388Z,9.75
2017-06-05T10:14:01.953Z,8.85
2017-06-05T10:16:29.547Z,9.73
2017-06-05T10:18:57.162Z,11.00
2017-06-05T10:21:24.728Z,11.10
2017-06-05T10:23:52.303Z,9.43
2017-06-05T10:26:20.083Z,7.60
2017-06-05T10:28:47.667Z,10.68
2017-06-05T10:31:15.231Z,9.70
2017-06-05T10:33:42.839Z,9.70
2017-06-05T10:36:10.404Z,9.63
2017-06-05T10:38:37.997Z,10.48
2017-06-05T10:41:05.588Z,12.02
2017-06-05T10:43:33.179Z,9.70
2017-06-05T10:46:00.784Z,10.82
2017-06-05T10:48:28.396Z,12.82
2017-06-05T10:50:55.981Z,12.98
2017-06-05T10:53:23.580Z,10.60
2017-06-05T10:55:51.168Z,12.02
2017-06-05T10:58:18.822Z,11.23
2017-06-05T11:00:46.416Z,9.50
2017-06-05T11:03:14.003Z,13.85
2017-06-05T11:05:41.601Z,9.32
2017-06-05T11:08:09.162Z,7.60
2017-06-05T11:10:36.759Z,10.32
2017-06-05T11:13:04.325Z,9.35
2017-06-05T11:15:31.917Z,9.65
2017-06-05T11:17:59.507Z,9.05
2017-06-05T11:20:27.082Z,9.65
2017-06-05T11:22:54.655Z,11.75
2017-06-05T11:25:22.244Z,11.12
2017-06-05T11:27:49.820Z,10.15
2017-06-05T11:30:17.436Z,9.93
2017-06-05T11:32:45.607Z,10.30
2017-06-05T11:35:15.150Z,10.88
2017-06-05T11:37:42.756Z,12.10
2017-06-05T11:40:10.335Z,9.57
2017-06-05T11:42:37.923Z,10.15
2017-06-05T11:45:05.504Z,8.95
2017-06-05T11:47:34.464Z,8.80
2017-06-05T11:50:02.079Z,7.45
2017-06-05T11:52:29.696Z,7.68
2017-06-05T11:54:57.271Z,6.57
2017-06-05T11:57:24.868Z,5.53
2017-06-05T11:59:52.469Z,7.35
2017-06-05T12:02:20.079Z,7.10
2017-06-05T12:04:47.647Z,7.10
2017-06-05T12:07:15.260Z,7.37
2017-06-05T12:09:42.837Z,4.22
2017-06-05T12:12:10.410Z,5.03
2017-06-05T12:14:37.980Z,8.07
2017-06-05T12:17:05.542Z,5.18
2017-06-05T12:19:33.123Z,6.32
2017-06-05T12:22:00.695Z,5.25
2017-06-05T12:24:28.268Z,7.68
2017-06-05T12:26:55.851Z,7.82
2017-06-05T12:29:23.456Z,7.43
2017-06-05T12:31:51.039Z,5.62
2017-06-05T12:34:18.634Z,6.18
2017-06-05T12:36:46.213Z,4.97
2017-06-05T12:39:13.793Z,5.80
2017-06-05T12:41:41.367Z,7.28
2017-06-05T12:44:08.951Z,5.53
2017-06-05T12:46:36.521Z,5.72
2017-06-05T12:49:04.105Z,8.30
2017-06-05T12:51:31.676Z,6.15
2017-06-05T12:53:59.319Z,6.68
2017-06-05T12:56:26.889Z,4.97
2017-06-05T12:58:54.528Z,6.32
2017-06-05T13:01:22.108Z,10.88
2017-06-05T13:03:49.678Z,8.45
2017-06-05T13:06:17.255Z,6.22
2017-06-05T13:08:44.852Z,6.65
2017-06-05T13:11:12.475Z,6.07
2017-06-05T13:13:40.043Z,6.97
2017-06-05T13:16:07.631Z,6.90
2017-06-05T13:18:35.209Z,5.93
2017-06-05T13:21:02.811Z,6.32
2017-06-05T13:23:30.388Z,7.60
2017-06-05T13:25:57.989Z,6.12
2017-06-05T13:28:25.561Z,5.70
2017-06-05T13:30:53.409Z,8.13
2017-06-05T13:33:21.090Z,6.57
2017-06-05T13:35:48.689Z,6.53
2017-06-05T13:38:23.588Z,6.60
2017-06-05T13:41:10.618Z,11.70
2017-06-05T13:43:45.289Z,9.68
2017-06-05T13:46:29.697Z,6.87
2017-06-05T13:49:17.336Z,7.65
2017-06-05T13:51:55.156Z,7.05
2017-06-05T13:54:37.799Z,7.35
2017-06-05T14:00:04.926Z,7.72
2017-06-05T14:02:40.738Z,6.47
2017-06-05T14:05:23.357Z,8.13
2017-06-05T14:08:07.918Z,6.97
2017-06-05T14:10:52.157Z,5.70
2017-06-05T14:13:38.592Z,5.85
2017-06-05T14:16:22.735Z,6.55
2017-06-05T14:18:50.313Z,6.65
2017-06-05T14:21:17.879Z,7.32
2017-06-05T14:23:45.518Z,5.47
2017-06-05T14:26:13.087Z,6.95
2017-06-05T14:28:40.682Z,8.57
2017-06-05T14:31:08.272Z,6.87
2017-06-05T14:33:35.867Z,5.78
2017-06-05T14:36:03.812Z,4.80
2017-06-05T14:38:31.489Z,4.68
2017-06-05T14:40:59.069Z,6.35
2017-06-05T14:43:26.693Z,4.97
2017-06-05T14:45:54.294Z,6.00
2017-06-05T14:48:21.861Z,5.30
2017-06-05T14:50:49.440Z,4.65
2017-06-05T14:53:17.000Z,4.57
2017-06-05T14:55:44.600Z,6.78
2017-06-05T14:58:12.323Z,4.80
2017-06-05T15:00:39.911Z,4.57
2017-06-05T15:03:07.467Z,4.87
2017-06-05T15:05:35.052Z,5.10
2017-06-05T15:08:02.704Z,10.00
2017-06-05T15:10:30.327Z,5.53
2017-06-05T15:12:58.040Z,6.97
2017-06-05T15:15:25.696Z,5.30
2017-06-05T15:17:53.270Z,8.50
2017-06-05T15:20:20.880Z,6.47
2017-06-05T15:22:58.360Z,11.55
2017-06-05T15:25:26.081Z,6.65
2017-06-05T15:27:54.955Z,4.87
2017-06-05T15:30:22.619Z,5.25
2017-06-05T15:32:50.319Z,7.00
2017-06-05T15:35:17.967Z,4.95
2017-06-05T15:37:45.635Z,5.45
2017-06-05T15:40:14.974Z,4.87
2017-06-05T15:42:43.657Z,5.25
2017-06-05T15:45:11.237Z,5.40
2017-06-05T15:47:38.884Z,4.78
2017-06-05T15:50:06.614Z,9.10
2017-06-05T15:52:34.198Z,7.45
2017-06-05T15:55:01.768Z,5.75
2017-06-05T15:57:29.347Z,7.32
2017-06-05T15:59:56.941Z,8.00
2017-06-05T16:02:24.527Z,6.47
2017-06-05T16:04:52.082Z,7.30
2017-06-05T16:07:19.699Z,6.00
2017-06-05T16:09:47.376Z,9.23
2017-06-05T16:12:14.948Z,6.20
2017-06-05T16:14:43.743Z,5.55
2017-06-05T16:17:11.309Z,6.95
2017-06-05T16:19:39.829Z,7.37
2017-06-05T16:22:07.416Z,7.20
2017-06-05T16:24:35.020Z,5.95
2017-06-05T16:27:02.596Z,6.50
2017-06-05T16:29:30.216Z,8.45
2017-06-05T16:31:57.801Z,5.80
2017-06-05T16:34:25.417Z,6.65
2017-06-05T16:36:58.722Z,5.57
2017-06-05T16:39:26.309Z,7.40
2017-06-05T16:41:53.869Z,9.10
2017-06-05T16:44:21.479Z,7.40
2017-06-05T16:46:59.488Z,11.88
2017-06-05T16:49:33.440Z,18.85
2017-06-05T16:52:07.063Z,12.07
2017-06-05T16:54:41.050Z,11.23
2017-06-05T16:57:16.151Z,9.43
2017-06-05T16:59:58.400Z,6.95
2017-06-05T17:02:32.388Z,7.45
2017-06-05T17:05:06.132Z,10.82
2017-06-05T17:07:40.888Z,7.90
2017-06-05T17:10:16.025Z,6.05
2017-06-05T17:12:47.869Z,9.32
2017-06-05T17:15:26.044Z,8.50
2017-06-05T17:18:01.883Z,8.57
2017-06-05T17:20:33.122Z,7.12
2017-06-05T17:23:04.172Z,8.90
2017-06-05T17:25:37.691Z,7.07
2017-06-05T17:28:13.479Z,7.40
2017-06-05T17:33:44.543Z,6.97
2017-06-05T17:36:19.512Z,7.87
2017-06-05T17:38:54.030Z,7.70
2017-06-05T17:41:28.107Z,6.68
2017-06-05T17:47:08.278Z,6.97
2017-06-05T17:52:41.534Z,10.20
2017-06-05T17:55:15.979Z,11.32
2017-06-05T17:57:49.465Z,5.55
2017-06-05T18:00:25.234Z,8.13
2017-06-05T18:03:06.350Z,6.82
2017-06-05T18:08:30.529Z,7.00
2017-06-05T18:11:01.453Z,7.12
2017-06-05T18:16:45.320Z,7.53
2017-06-05T18:22:25.443Z,6.22
2017-06-05T18:27:42.276Z,7.00
2017-06-05T18:30:09.878Z,7.40
2017-06-05T18:32:37.598Z,7.80
2017-06-05T18:35:06.069Z,7.30
2017-06-05T18:37:33.800Z,8.73
2017-06-05T18:40:01.444Z,7.17
2017-06-05T18:42:29.023Z,7.25
2017-06-05T18:44:56.630Z,8.57
2017-06-05T18:47:24.196Z,7.65
2017-06-05T18:49:51.803Z,7.35
2017-06-05T18:52:19.388Z,8.93
2017-06-05T18:54:46.975Z,8.02
2017-06-05T18:57:14.561Z,7.40
2017-06-05T18:59:42.165Z,7.25
2017-06-05T19:02:09.793Z,7.95
2017-06-05T19:04:37.392Z,6.93
2017-06-05T19:07:05.205Z,7.50
2017-06-05T19:09:32.860Z,7.43
2017-06-05T19:12:00.524Z,6.65
2017-06-05T19:14:28.154Z,6.85
2017-06-05T19:16:56.670Z,6.55
2017-06-05T19:19:24.237Z,5.95
2017-06-05T19:21:51.857Z,7.37
2017-06-05T19:24:19.524Z,7.20
2017-06-05T19:26:53.667Z,8.23
2017-06-05T19:29:27.640Z,7.68
2017-06-05T19:32:01.764Z,7.22
2017-06-05T19:34:32.993Z,6.55
2017-06-05T19:37:06.562Z,7.97
2017-06-05T19:39:35.726Z,10.63
2017-06-05T19:42:09.701Z,9.20
2017-06-05T19:47:33.314Z,10.18
2017-06-05T19:50:04.351Z,10.35
2017-06-05T19:52:42.172Z,7.45
2017-06-05T19:55:13.312Z,7.60
2017-06-05T19:57:49.036Z,7.40
2017-06-05T20:03:23.301Z,6.70
2017-06-05T20:05:54.392Z,7.72
2017-06-05T20:08:34.496Z,11.00
2017-06-05T20:11:11.848Z,12.98
2017-06-05T20:13:49.182Z,9.30
2017-06-05T20:16:27.296Z,9.18
2017-06-05T20:19:02.932Z,8.80
2017-06-05T20:21:34.155Z,10.07
2017-06-05T20:24:07.783Z,8.25
2017-06-05T20:26:41.430Z,7.03
2017-06-05T20:29:15.213Z,7.93
2017-06-05T20:31:48.916Z,9.38
2017-06-05T20:34:20.148Z,12.15
2017-06-05T20:36:53.925Z,12.95
2017-06-05T20:39:27.469Z,10.63
2017-06-05T20:42:18.043Z,10.68
2017-06-05T20:44:52.274Z,9.15
2017-06-05T20:47:26.084Z,10.45
2017-06-05T20:49:59.977Z,10.77
2017-06-05T20:52:33.807Z,11.10
2017-06-05T20:55:07.854Z,9.65
2017-06-05T20:57:41.808Z,10.38
2017-06-05T21:00:15.831Z,10.30
2017-06-05T21:02:47.131Z,10.82
2017-06-05T21:05:20.905Z,10.38
2017-06-05T21:07:52.123Z,11.15
2017-06-05T21:10:25.794Z,11.70
2017-06-05T21:12:59.928Z,10.07
2017-06-05T21:15:34.024Z,10.15
2017-06-05T21:18:07.880Z,12.30
2017-06-05T21:20:39.146Z,11.05
2017-06-05T21:23:16.501Z,10.13
2017-06-05T21:25:47.940Z,12.30
2017-06-05T21:28:19.040Z,10.45
2017-06-05T21:30:52.878Z,11.43
2017-06-05T21:33:27.151Z,11.60
2017-06-05T21:36:01.008Z,16.30
2017-06-05T21:38:31.941Z,11.50
2017-06-05T21:41:09.604Z,11.18
2017-06-05T21:46:40.251Z,10.80
2017-06-05T21:49:14.177Z,12.35
2017-06-05T21:51:48.011Z,13.95
2017-06-05T21:54:21.736Z,13.23
2017-06-05T21:56:55.916Z,11.73
2017-06-05T21:59:29.647Z,13.15
2017-06-05T22:02:03.543Z,12.27
2017-06-05T22:04:41.462Z,16.65
2017-06-05T22:07:16.435Z,12.20
2017-06-05T22:09:54.324Z,14.10
2017-06-05T22:12:28.287Z,11.88
2017-06-05T22:14:59.587Z,13.62
2017-06-05T22:17:33.252Z,12.05
2017-06-05T22:20:07.153Z,12.45
2017-06-05T22:22:41.417Z,13.45
2017-06-05T22:25:13.072Z,13.38
2017-06-05T22:27:50.424Z,15.70
2017-06-05T22:30:30.724Z,13.00
2017-06-05T22:32:58.393Z,15.73
2017-06-05T22:35:25.991Z,11.50
2017-06-05T22:37:53.564Z,11.80
2017-06-05T22:40:21.152Z,13.27
2017-06-05T22:42:48.755Z,12.50
2017-06-05T22:45:16.355Z,11.50
2017-06-05T22:47:43.951Z,11.65
2017-06-05T22:50:11.579Z,12.70
2017-06-05T22:52:39.288Z,12.13
2017-06-05T22:57:59.616Z,13.32
2017-06-05T23:00:27.216Z,13.10
2017-06-05T23:02:54.805Z,12.05
2017-06-05T23:05:22.574Z,14.98
2017-06-05T23:07:50.231Z,14.98
2017-06-05T23:10:17.928Z,14.52
2017-06-05T23:12:45.505Z,14.48
2017-06-05T23:15:13.085Z,14.52
2017-06-05T23:17:40.700Z,19.42
2017-06-05T23:20:08.284Z,17.02
2017-06-05T23:22:35.888Z,15.68
2017-06-05T23:25:03.467Z,16.02
2017-06-05T23:27:31.057Z,20.50
2017-06-05T23:29:58.632Z,19.55
2017-06-05T23:32:33.302Z,16.95
2017-06-05T23:35:00.891Z,15.95
2017-06-05T23:37:28.498Z,14.18
2017-06-05T23:39:56.071Z,14.95
2017-06-05T23:42:23.674Z,15.95
2017-06-05T23:44:51.296Z,15.18
2017-06-05T23:47:18.876Z,13.00
2017-06-05T23:49:46.570Z,15.07
2017-06-05T23:52:14.145Z,13.70
2017-06-05T23:54:41.754Z,17.95
